sensor_id;sensor_type;location;lat;lon;timestamp;pressure;altitude;pressure_sealevel;temperature;humidity
16806;BME280;8520;50.102;20.010;2022-08-04T00:00:24;98484.94;;;23.45;72.55
16806;BME280;8520;50.102;20.010;2022-08-04T00:03:17;98483.97;;;23.35;73.16
16806;BME280;8520;50.102;20.010;2022-08-04T00:06:13;98485.09;;;23.32;72.89
16806;BME280;8520;50.102;20.010;2022-08-04T00:09:09;98482.88;;;23.46;72.54
16806;BME280;8520;50.102;20.010;2022-08-04T00:12:02;98481.31;;;23.30;73.16
16806;BME280;8520;50.102;20.010;2022-08-04T00:14:58;98476.84;;;23.34;73.08
16806;BME280;8520;50.102;20.010;2022-08-04T00:17:50;98476.66;;;23.32;72.88
16806;BME280;8520;50.102;20.010;2022-08-04T00:20:41;98482.03;;;23.22;73.26
16806;BME280;8520;50.102;20.010;2022-08-04T00:23:33;98487.88;;;23.24;73.25
16806;BME280;8520;50.102;20.010;2022-08-04T00:26:42;98486.72;;;23.20;73.50
16806;BME280;8520;50.102;20.010;2022-08-04T00:29:31;98492.53;;;23.22;73.38
16806;BME280;8520;50.102;20.010;2022-08-04T00:32:21;98485.03;;;23.17;73.42
16806;BME280;8520;50.102;20.010;2022-08-04T00:35:20;98484.44;;;23.11;73.29
16806;BME280;8520;50.102;20.010;2022-08-04T00:38:09;98481.56;;;23.03;73.44
16806;BME280;8520;50.102;20.010;2022-08-04T00:41:02;98480.59;;;22.93;73.85
16806;BME280;8520;50.102;20.010;2022-08-04T00:44:08;98490.81;;;22.83;74.10
16806;BME280;8520;50.102;20.010;2022-08-04T00:47:21;98486.91;;;22.86;73.95
16806;BME280;8520;50.102;20.010;2022-08-04T00:50:24;98486.84;;;22.78;74.39
16806;BME280;8520;50.102;20.010;2022-08-04T00:53:20;98492.25;;;22.76;74.48
16806;BME280;8520;50.102;20.010;2022-08-04T00:56:21;98486.84;;;22.78;74.07
16806;BME280;8520;50.102;20.010;2022-08-04T00:59:29;98487.34;;;22.69;74.84
16806;BME280;8520;50.102;20.010;2022-08-04T01:02:28;98493.72;;;22.69;74.91
16806;BME280;8520;50.102;20.010;2022-08-04T01:05:29;98493.13;;;22.63;74.98
16806;BME280;8520;50.102;20.010;2022-08-04T01:08:40;98488.94;;;22.57;75.45
16806;BME280;8520;50.102;20.010;2022-08-04T01:11:44;98496.78;;;22.51;75.58
16806;BME280;8520;50.102;20.010;2022-08-04T01:14:53;98488.50;;;22.45;75.60
16806;BME280;8520;50.102;20.010;2022-08-04T01:17:56;98492.59;;;22.44;75.69
16806;BME280;8520;50.102;20.010;2022-08-04T01:20:57;98487.88;;;22.39;75.72
16806;BME280;8520;50.102;20.010;2022-08-04T01:24:16;98500.13;;;22.28;76.13
16806;BME280;8520;50.102;20.010;2022-08-04T01:27:10;98498.09;;;22.29;76.44
16806;BME280;8520;50.102;20.010;2022-08-04T01:30:10;98488.91;;;22.28;76.22
16806;BME280;8520;50.102;20.010;2022-08-04T01:33:02;98490.03;;;22.25;76.64
16806;BME280;8520;50.102;20.010;2022-08-04T01:35:54;98492.81;;;22.25;76.63
16806;BME280;8520;50.102;20.010;2022-08-04T01:38:43;98486.03;;;22.21;76.61
16806;BME280;8520;50.102;20.010;2022-08-04T01:41:32;98484.38;;;22.04;77.17
16806;BME280;8520;50.102;20.010;2022-08-04T01:44:22;98480.53;;;21.94;77.46
16806;BME280;8520;50.102;20.010;2022-08-04T01:47:13;98481.16;;;22.00;77.55
16806;BME280;8520;50.102;20.010;2022-08-04T01:50:06;98489.25;;;22.04;77.41
16806;BME280;8520;50.102;20.010;2022-08-04T01:52:55;98490.88;;;21.99;77.48
16806;BME280;8520;50.102;20.010;2022-08-04T01:55:45;98483.56;;;21.96;77.51
16806;BME280;8520;50.102;20.010;2022-08-04T01:58:41;98487.41;;;21.85;78.07
16806;BME280;8520;50.102;20.010;2022-08-04T02:01:35;98481.63;;;21.91;77.68
16806;BME280;8520;50.102;20.010;2022-08-04T02:04:25;98483.69;;;21.91;77.75
16806;BME280;8520;50.102;20.010;2022-08-04T02:07:21;98484.25;;;21.89;77.67
16806;BME280;8520;50.102;20.010;2022-08-04T02:10:22;98470.09;;;21.95;77.42
16806;BME280;8520;50.102;20.010;2022-08-04T02:13:22;98478.72;;;21.97;77.39
16806;BME280;8520;50.102;20.010;2022-08-04T02:16:15;98479.56;;;21.92;77.61
16806;BME280;8520;50.102;20.010;2022-08-04T02:19:15;98480.06;;;21.82;77.92
16806;BME280;8520;50.102;20.010;2022-08-04T02:22:18;98478.25;;;21.72;78.54
16806;BME280;8520;50.102;20.010;2022-08-04T02:25:10;98463.28;;;21.69;78.34
16806;BME280;8520;50.102;20.010;2022-08-04T02:28:11;98472.03;;;21.66;78.55
16806;BME280;8520;50.102;20.010;2022-08-04T02:31:13;98478.25;;;21.72;78.50
16806;BME280;8520;50.102;20.010;2022-08-04T02:34:08;98471.69;;;21.69;78.18
16806;BME280;8520;50.102;20.010;2022-08-04T02:36:59;98471.69;;;21.69;78.27
16806;BME280;8520;50.102;20.010;2022-08-04T02:39:52;98470.31;;;21.63;78.42
16806;BME280;8520;50.102;20.010;2022-08-04T02:42:41;98461.72;;;21.61;78.27
16806;BME280;8520;50.102;20.010;2022-08-04T02:45:31;98467.72;;;21.65;78.46
16806;BME280;8520;50.102;20.010;2022-08-04T02:48:23;98466.00;;;21.62;78.39
16806;BME280;8520;50.102;20.010;2022-08-04T02:51:22;98473.69;;;21.48;78.94
16806;BME280;8520;50.102;20.010;2022-08-04T02:54:10;98467.97;;;21.53;78.84
16806;BME280;8520;50.102;20.010;2022-08-04T02:57:21;98471.66;;;21.48;78.76
16806;BME280;8520;50.102;20.010;2022-08-04T03:00:12;98468.22;;;21.42;78.85
16806;BME280;8520;50.102;20.010;2022-08-04T03:03:11;98468.22;;;21.42;78.97
16806;BME280;8520;50.102;20.010;2022-08-04T03:06:27;98462.44;;;21.40;79.19
16806;BME280;8520;50.102;20.010;2022-08-04T03:09:30;98464.47;;;21.40;79.29
16806;BME280;8520;50.102;20.010;2022-08-04T03:12:51;98461.13;;;21.41;79.26
16806;BME280;8520;50.102;20.010;2022-08-04T03:15:58;98464.47;;;21.40;79.16
16806;BME280;8520;50.102;20.010;2022-08-04T03:19:12;98472.44;;;21.36;79.18
16806;BME280;8520;50.102;20.010;2022-08-04T03:22:20;98468.88;;;21.35;79.06
16806;BME280;8520;50.102;20.010;2022-08-04T03:36:37;98476.00;;;21.23;80.11
16806;BME280;8520;50.102;20.010;2022-08-04T03:40:05;98480.53;;;21.26;80.16
16806;BME280;8520;50.102;20.010;2022-08-04T03:53:38;98480.66;;;21.34;80.27
16806;BME280;8520;50.102;20.010;2022-08-04T04:00:03;98479.66;;;21.44;79.62
16806;BME280;8520;50.102;20.010;2022-08-04T04:03:31;98483.75;;;21.43;79.51
16806;BME280;8520;50.102;20.010;2022-08-04T04:06:51;98476.28;;;21.59;79.43
16806;BME280;8520;50.102;20.010;2022-08-04T04:10:05;98482.53;;;21.52;79.16
16806;BME280;8520;50.102;20.010;2022-08-04T04:16:35;98483.75;;;21.77;78.71
16806;BME280;8520;50.102;20.010;2022-08-04T04:19:52;98487.16;;;21.83;78.56
16806;BME280;8520;50.102;20.010;2022-08-04T04:22:59;98486.13;;;21.94;77.74
16806;BME280;8520;50.102;20.010;2022-08-04T04:25:58;98491.75;;;21.94;78.16
16806;BME280;8520;50.102;20.010;2022-08-04T04:29:02;98492.91;;;21.78;78.20
16806;BME280;8520;50.102;20.010;2022-08-04T04:32:03;98494.44;;;21.79;78.04
16806;BME280;8520;50.102;20.010;2022-08-04T04:35:07;98498.25;;;21.89;77.85
16806;BME280;8520;50.102;20.010;2022-08-04T04:38:28;98501.63;;;21.88;77.81
16806;BME280;8520;50.102;20.010;2022-08-04T04:41:35;98500.72;;;21.93;77.55
16806;BME280;8520;50.102;20.010;2022-08-04T04:44:47;98505.03;;;21.94;77.34
16806;BME280;8520;50.102;20.010;2022-08-04T04:47:48;98507.72;;;21.99;77.45
16806;BME280;8520;50.102;20.010;2022-08-04T04:51:05;98512.13;;;22.08;77.19
16806;BME280;8520;50.102;20.010;2022-08-04T04:54:03;98518.88;;;22.12;76.91
16806;BME280;8520;50.102;20.010;2022-08-04T04:57:02;98512.59;;;22.20;76.91
16806;BME280;8520;50.102;20.010;2022-08-04T04:59:55;98514.81;;;22.13;77.08
16806;BME280;8520;50.102;20.010;2022-08-04T05:03:15;98515.34;;;22.12;77.69
16806;BME280;8520;50.102;20.010;2022-08-04T05:06:29;98512.56;;;21.99;78.53
16806;BME280;8520;50.102;20.010;2022-08-04T05:09:32;98523.78;;;22.33;77.82
16806;BME280;8520;50.102;20.010;2022-08-04T05:13:02;98516.16;;;22.41;77.97
16806;BME280;8520;50.102;20.010;2022-08-04T05:16:17;98504.72;;;22.60;77.96
16806;BME280;8520;50.102;20.010;2022-08-04T05:19:16;98514.34;;;22.72;77.75
16806;BME280;8520;50.102;20.010;2022-08-04T05:22:09;98516.44;;;22.79;77.24
16806;BME280;8520;50.102;20.010;2022-08-04T05:25:06;98524.00;;;22.84;77.16
16806;BME280;8520;50.102;20.010;2022-08-04T05:28:00;98518.28;;;22.97;76.78
16806;BME280;8520;50.102;20.010;2022-08-04T05:30:55;98522.28;;;23.10;76.52
16806;BME280;8520;50.102;20.010;2022-08-04T05:33:48;98526.66;;;23.26;76.58
16806;BME280;8520;50.102;20.010;2022-08-04T05:36:41;98528.25;;;23.42;75.88
16806;BME280;8520;50.102;20.010;2022-08-04T05:39:35;98527.16;;;23.53;75.21
16806;BME280;8520;50.102;20.010;2022-08-04T05:42:26;98524.97;;;23.59;75.16
16806;BME280;8520;50.102;20.010;2022-08-04T05:45:15;98532.13;;;23.75;74.22
16806;BME280;8520;50.102;20.010;2022-08-04T05:48:07;98539.13;;;23.90;73.61
16806;BME280;8520;50.102;20.010;2022-08-04T05:50:56;98534.41;;;23.84;73.46
16806;BME280;8520;50.102;20.010;2022-08-04T05:53:48;98534.22;;;23.82;73.69
16806;BME280;8520;50.102;20.010;2022-08-04T05:56:37;98540.09;;;24.00;73.72
16806;BME280;8520;50.102;20.010;2022-08-04T05:59:28;98544.03;;;24.04;73.17
16806;BME280;8520;50.102;20.010;2022-08-04T06:02:18;98530.59;;;24.33;72.61
16806;BME280;8520;50.102;20.010;2022-08-04T06:05:08;98541.09;;;24.48;72.49
16806;BME280;8520;50.102;20.010;2022-08-04T06:08:00;98541.28;;;24.58;72.12
16806;BME280;8520;50.102;20.010;2022-08-04T06:11:02;98538.28;;;24.79;71.29
16806;BME280;8520;50.102;20.010;2022-08-04T06:13:54;98539.97;;;24.82;71.01
16806;BME280;8520;50.102;20.010;2022-08-04T06:16:46;98539.00;;;24.94;69.92
16806;BME280;8520;50.102;20.010;2022-08-04T06:19:39;98549.53;;;25.09;69.30
16806;BME280;8520;50.102;20.010;2022-08-04T06:22:51;98542.00;;;25.12;68.78
16806;BME280;8520;50.102;20.010;2022-08-04T06:25:43;98554.34;;;25.32;68.07
16806;BME280;8520;50.102;20.010;2022-08-04T06:28:34;98550.94;;;25.41;68.09
16806;BME280;8520;50.102;20.010;2022-08-04T06:31:23;98551.81;;;25.59;67.05
16806;BME280;8520;50.102;20.010;2022-08-04T06:34:53;98548.56;;;25.70;66.75
16806;BME280;8520;50.102;20.010;2022-08-04T06:37:43;98543.13;;;25.72;65.95
16806;BME280;8520;50.102;20.010;2022-08-04T06:40:33;98546.25;;;25.84;67.00
16806;BME280;8520;50.102;20.010;2022-08-04T06:43:22;98543.31;;;26.06;66.71
16806;BME280;8520;50.102;20.010;2022-08-04T06:46:14;98548.41;;;26.08;65.63
16806;BME280;8520;50.102;20.010;2022-08-04T06:49:03;98547.13;;;26.26;65.44
16806;BME280;8520;50.102;20.010;2022-08-04T06:51:54;98542.13;;;26.42;65.16
16806;BME280;8520;50.102;20.010;2022-08-04T06:54:46;98539.50;;;26.44;65.08
16806;BME280;8520;50.102;20.010;2022-08-04T06:57:35;98537.28;;;26.60;63.93
16806;BME280;8520;50.102;20.010;2022-08-04T07:00:25;98541.22;;;26.64;64.11
16806;BME280;8520;50.102;20.010;2022-08-04T07:03:15;98544.81;;;26.82;63.93
16806;BME280;8520;50.102;20.010;2022-08-04T07:06:06;98540.34;;;26.97;63.86
16806;BME280;8520;50.102;20.010;2022-08-04T07:09:02;98541.28;;;26.99;64.64
16806;BME280;8520;50.102;20.010;2022-08-04T07:11:53;98539.78;;;27.15;63.72
16806;BME280;8520;50.102;20.010;2022-08-04T07:14:43;98540.06;;;27.27;63.69
16806;BME280;8520;50.102;20.010;2022-08-04T07:17:32;98534.78;;;27.41;62.60
16806;BME280;8520;50.102;20.010;2022-08-04T07:20:22;98531.69;;;27.64;61.67
16806;BME280;8520;50.102;20.010;2022-08-04T07:23:23;98538.28;;;27.66;60.89
16806;BME280;8520;50.102;20.010;2022-08-04T07:26:13;98534.28;;;27.69;60.50
16806;BME280;8520;50.102;20.010;2022-08-04T07:29:05;98542.25;;;27.81;58.98
16806;BME280;8520;50.102;20.010;2022-08-04T07:31:55;98538.41;;;27.86;59.00
16806;BME280;8520;50.102;20.010;2022-08-04T07:34:44;98536.66;;;28.17;58.21
16806;BME280;8520;50.102;20.010;2022-08-04T07:37:36;98538.34;;;28.03;57.46
16806;BME280;8520;50.102;20.010;2022-08-04T07:40:26;98538.84;;;27.82;58.18
16806;BME280;8520;50.102;20.010;2022-08-04T07:43:16;98536.88;;;28.02;56.10
16806;BME280;8520;50.102;20.010;2022-08-04T07:46:05;98544.56;;;28.19;55.71
16806;BME280;8520;50.102;20.010;2022-08-04T07:48:54;98544.81;;;28.13;55.80
16806;BME280;8520;50.102;20.010;2022-08-04T07:51:42;98539.09;;;28.30;54.87
16806;BME280;8520;50.102;20.010;2022-08-04T07:54:32;98542.16;;;28.52;55.02
16806;BME280;8520;50.102;20.010;2022-08-04T07:57:21;98536.56;;;28.71;54.10
16806;BME280;8520;50.102;20.010;2022-08-04T08:00:29;98542.97;;;28.72;54.67
16806;BME280;8520;50.102;20.010;2022-08-04T08:03:18;98539.69;;;28.75;55.10
16806;BME280;8520;50.102;20.010;2022-08-04T08:06:08;98538.22;;;28.84;54.53
16806;BME280;8520;50.102;20.010;2022-08-04T08:09:18;98530.34;;;28.92;54.17
16806;BME280;8520;50.102;20.010;2022-08-04T08:12:07;98537.47;;;28.83;54.35
16806;BME280;8520;50.102;20.010;2022-08-04T08:15:18;98539.72;;;28.85;53.54
16806;BME280;8520;50.102;20.010;2022-08-04T08:18:08;98538.75;;;29.19;52.10
16806;BME280;8520;50.102;20.010;2022-08-04T08:20:57;98539.34;;;29.27;51.23
16806;BME280;8520;50.102;20.010;2022-08-04T08:23:45;98537.84;;;29.36;51.36
16806;BME280;8520;50.102;20.010;2022-08-04T08:26:34;98531.41;;;29.16;52.16
16806;BME280;8520;50.102;20.010;2022-08-04T08:29:23;98533.06;;;29.09;51.67
16806;BME280;8520;50.102;20.010;2022-08-04T08:32:13;98536.78;;;29.02;52.16
16806;BME280;8520;50.102;20.010;2022-08-04T08:35:05;98542.47;;;29.22;50.49
16806;BME280;8520;50.102;20.010;2022-08-04T08:37:56;98533.50;;;29.06;51.04
16806;BME280;8520;50.102;20.010;2022-08-04T08:40:54;98537.69;;;29.24;50.86
16806;BME280;8520;50.102;20.010;2022-08-04T08:43:59;98539.19;;;29.44;50.51
16806;BME280;8520;50.102;20.010;2022-08-04T08:47:03;98531.72;;;29.39;50.84
16806;BME280;8520;50.102;20.010;2022-08-04T08:50:09;98539.03;;;29.33;49.94
16806;BME280;8520;50.102;20.010;2022-08-04T08:53:19;98543.22;;;29.41;50.38
16806;BME280;8520;50.102;20.010;2022-08-04T08:56:21;98540.22;;;29.39;49.91
16806;BME280;8520;50.102;20.010;2022-08-04T08:59:36;98538.28;;;29.61;46.98
16806;BME280;8520;50.102;20.010;2022-08-04T09:02:43;98538.00;;;29.38;46.64
16806;BME280;8520;50.102;20.010;2022-08-04T09:06:16;98528.25;;;29.80;46.61
16806;BME280;8520;50.102;20.010;2022-08-04T09:09:24;98530.72;;;30.14;46.98
16806;BME280;8520;50.102;20.010;2022-08-04T09:12:24;98535.03;;;30.56;46.84
16806;BME280;8520;50.102;20.010;2022-08-04T09:15:19;98535.97;;;30.49;46.74
16806;BME280;8520;50.102;20.010;2022-08-04T09:18:16;98531.63;;;30.48;46.73
16806;BME280;8520;50.102;20.010;2022-08-04T09:21:12;98533.44;;;30.02;46.22
16806;BME280;8520;50.102;20.010;2022-08-04T09:24:08;98542.66;;;30.22;46.25
16806;BME280;8520;50.102;20.010;2022-08-04T09:27:22;98544.38;;;30.47;46.82
16806;BME280;8520;50.102;20.010;2022-08-04T09:30:15;98535.16;;;30.68;47.27
16806;BME280;8520;50.102;20.010;2022-08-04T09:33:12;98540.34;;;30.40;47.04
16806;BME280;8520;50.102;20.010;2022-08-04T09:36:16;98535.88;;;30.37;46.39
16806;BME280;8520;50.102;20.010;2022-08-04T09:39:19;98540.16;;;30.48;44.81
16806;BME280;8520;50.102;20.010;2022-08-04T09:42:16;98521.88;;;30.51;44.25
16806;BME280;8520;50.102;20.010;2022-08-04T09:45:17;98528.75;;;30.57;45.91
16806;BME280;8520;50.102;20.010;2022-08-04T09:48:38;98528.53;;;30.96;46.29
16806;BME280;8520;50.102;20.010;2022-08-04T09:51:44;98522.06;;;31.17;45.13
16806;BME280;8520;50.102;20.010;2022-08-04T09:54:50;98528.72;;;30.89;44.99
16806;BME280;8520;50.102;20.010;2022-08-04T10:00:51;98514.56;;;30.79;45.44
16806;BME280;8520;50.102;20.010;2022-08-04T10:03:44;98521.88;;;31.25;44.13
16806;BME280;8520;50.102;20.010;2022-08-04T10:07:14;98523.25;;;31.24;44.22
16806;BME280;8520;50.102;20.010;2022-08-04T10:10:16;98523.78;;;31.32;43.58
16806;BME280;8520;50.102;20.010;2022-08-04T10:13:16;98519.13;;;31.36;43.48
16806;BME280;8520;50.102;20.010;2022-08-04T10:16:23;98513.78;;;31.42;44.00
16806;BME280;8520;50.102;20.010;2022-08-04T10:19:24;98513.19;;;31.77;44.25
16806;BME280;8520;50.102;20.010;2022-08-04T10:22:19;98516.19;;;31.46;45.87
16806;BME280;8520;50.102;20.010;2022-08-04T10:25:28;98505.56;;;31.58;46.07
16806;BME280;8520;50.102;20.010;2022-08-04T10:28:42;98502.63;;;31.68;45.97
16806;BME280;8520;50.102;20.010;2022-08-04T10:31:33;98502.13;;;31.71;46.02
16806;BME280;8520;50.102;20.010;2022-08-04T10:34:25;98500.00;;;31.72;45.54
16806;BME280;8520;50.102;20.010;2022-08-04T10:37:21;98497.78;;;31.70;46.63
16806;BME280;8520;50.102;20.010;2022-08-04T10:40:35;98489.31;;;31.94;46.50
16806;BME280;8520;50.102;20.010;2022-08-04T10:43:40;98495.09;;;31.39;46.95
16806;BME280;8520;50.102;20.010;2022-08-04T10:46:31;98499.06;;;31.91;46.57
16806;BME280;8520;50.102;20.010;2022-08-04T10:49:23;98503.44;;;31.92;46.14
16806;BME280;8520;50.102;20.010;2022-08-04T10:52:23;98492.41;;;31.98;44.96
16806;BME280;8520;50.102;20.010;2022-08-04T10:55:18;98495.94;;;31.30;46.14
16806;BME280;8520;50.102;20.010;2022-08-04T10:58:17;98490.53;;;31.79;45.87
16806;BME280;8520;50.102;20.010;2022-08-04T11:01:20;98492.22;;;31.73;45.96
16806;BME280;8520;50.102;20.010;2022-08-04T11:04:36;98490.41;;;31.77;44.72
16806;BME280;8520;50.102;20.010;2022-08-04T11:07:31;98500.44;;;31.78;45.60
16806;BME280;8520;50.102;20.010;2022-08-04T11:10:24;98499.75;;;31.68;44.97
16806;BME280;8520;50.102;20.010;2022-08-04T11:13:16;98497.13;;;31.60;44.57
16806;BME280;8520;50.102;20.010;2022-08-04T11:16:20;98506.88;;;31.79;44.54
16806;BME280;8520;50.102;20.010;2022-08-04T11:19:18;98497.59;;;31.90;43.44
16806;BME280;8520;50.102;20.010;2022-08-04T11:22:37;98490.41;;;31.77;43.06
16806;BME280;8520;50.102;20.010;2022-08-04T11:25:29;98497.13;;;31.93;43.35
16806;BME280;8520;50.102;20.010;2022-08-04T11:28:32;98491.31;;;32.03;43.46
16806;BME280;8520;50.102;20.010;2022-08-04T11:31:27;98495.78;;;32.30;42.62
16806;BME280;8520;50.102;20.010;2022-08-04T11:34:20;98485.00;;;32.28;43.28
16806;BME280;8520;50.102;20.010;2022-08-04T11:37:15;98490.59;;;32.38;42.15
16806;BME280;8520;50.102;20.010;2022-08-04T11:40:10;98486.63;;;32.31;42.68
16806;BME280;8520;50.102;20.010;2022-08-04T11:43:01;98497.50;;;32.11;43.36
16806;BME280;8520;50.102;20.010;2022-08-04T11:45:53;98493.56;;;32.51;41.58
16806;BME280;8520;50.102;20.010;2022-08-04T11:48:47;98489.94;;;32.74;41.81
16806;BME280;8520;50.102;20.010;2022-08-04T11:51:41;98482.78;;;32.50;42.45
16806;BME280;8520;50.102;20.010;2022-08-04T11:54:33;98486.78;;;32.82;42.38
16806;BME280;8520;50.102;20.010;2022-08-04T11:57:23;98479.78;;;33.08;41.42
16806;BME280;8520;50.102;20.010;2022-08-04T12:00:24;98479.72;;;33.57;40.72
16806;BME280;8520;50.102;20.010;2022-08-04T12:03:30;98478.06;;;34.19;40.33
16806;BME280;8520;50.102;20.010;2022-08-04T12:06:29;98478.22;;;34.76;39.64
16806;BME280;8520;50.102;20.010;2022-08-04T12:09:27;98470.13;;;35.29;38.83
16806;BME280;8520;50.102;20.010;2022-08-04T12:12:24;98467.41;;;36.08;37.41
16806;BME280;8520;50.102;20.010;2022-08-04T12:15:21;98465.22;;;36.56;36.75
16806;BME280;8520;50.102;20.010;2022-08-04T12:18:20;98458.41;;;36.47;37.08
16806;BME280;8520;50.102;20.010;2022-08-04T12:21:24;98447.53;;;36.62;37.07
16806;BME280;8520;50.102;20.010;2022-08-04T12:24:19;98451.56;;;37.24;36.61
16806;BME280;8520;50.102;20.010;2022-08-04T12:27:12;98455.75;;;37.21;36.69
16806;BME280;8520;50.102;20.010;2022-08-04T12:30:05;98454.94;;;37.18;37.22
16806;BME280;8520;50.102;20.010;2022-08-04T12:33:20;98448.41;;;38.09;35.08
16806;BME280;8520;50.102;20.010;2022-08-04T12:36:34;98450.88;;;38.36;34.52
16806;BME280;8520;50.102;20.010;2022-08-04T12:39:26;98451.97;;;39.11;34.05
16806;BME280;8520;50.102;20.010;2022-08-04T12:42:18;98449.25;;;39.37;34.27
16806;BME280;8520;50.102;20.010;2022-08-04T12:45:12;98442.16;;;39.88;33.42
16806;BME280;8520;50.102;20.010;2022-08-04T12:48:03;98445.19;;;39.46;33.13
16806;BME280;8520;50.102;20.010;2022-08-04T12:50:55;98438.06;;;39.71;33.02
16806;BME280;8520;50.102;20.010;2022-08-04T12:53:45;98438.75;;;39.69;33.34
16806;BME280;8520;50.102;20.010;2022-08-04T12:56:38;98435.72;;;39.65;32.86
16806;BME280;8520;50.102;20.010;2022-08-04T12:59:27;98440.34;;;39.29;33.43
16806;BME280;8520;50.102;20.010;2022-08-04T13:02:23;98440.94;;;39.71;32.40
16806;BME280;8520;50.102;20.010;2022-08-04T13:05:13;98425.06;;;40.20;32.04
16806;BME280;8520;50.102;20.010;2022-08-04T13:08:04;98427.53;;;39.12;33.11
16806;BME280;8520;50.102;20.010;2022-08-04T13:10:56;98434.25;;;39.18;33.13
16806;BME280;8520;50.102;20.010;2022-08-04T13:13:46;98423.19;;;39.33;32.53
16806;BME280;8520;50.102;20.010;2022-08-04T13:16:58;98427.59;;;39.36;32.66
16806;BME280;8520;50.102;20.010;2022-08-04T13:19:49;98410.78;;;39.28;32.82
16806;BME280;8520;50.102;20.010;2022-08-04T13:22:40;98416.47;;;39.50;32.73
16806;BME280;8520;50.102;20.010;2022-08-04T13:25:34;98415.88;;;38.86;33.25
16806;BME280;8520;50.102;20.010;2022-08-04T13:28:47;98420.09;;;39.27;32.57
16806;BME280;8520;50.102;20.010;2022-08-04T13:31:36;98415.00;;;39.25;33.05
16806;BME280;8520;50.102;20.010;2022-08-04T13:34:40;98417.50;;;39.13;32.91
16806;BME280;8520;50.102;20.010;2022-08-04T13:37:41;98410.34;;;39.60;32.25
16806;BME280;8520;50.102;20.010;2022-08-04T13:40:30;98416.31;;;39.44;32.81
16806;BME280;8520;50.102;20.010;2022-08-04T13:43:24;98407.69;;;39.94;32.27
16806;BME280;8520;50.102;20.010;2022-08-04T13:46:36;98410.53;;;40.16;32.28
16806;BME280;8520;50.102;20.010;2022-08-04T13:49:25;98402.56;;;40.42;31.53
16806;BME280;8520;50.102;20.010;2022-08-04T13:52:33;98402.81;;;40.24;31.65
16806;BME280;8520;50.102;20.010;2022-08-04T13:55:27;98402.19;;;40.02;31.63
16806;BME280;8520;50.102;20.010;2022-08-04T13:58:20;98396.75;;;40.14;31.74
16806;BME280;8520;50.102;20.010;2022-08-04T14:01:14;98401.75;;;40.12;31.64
16806;BME280;8520;50.102;20.010;2022-08-04T14:04:10;98394.81;;;40.49;31.80
16806;BME280;8520;50.102;20.010;2022-08-04T14:07:02;98395.06;;;40.87;31.16
16806;BME280;8520;50.102;20.010;2022-08-04T14:10:11;98390.47;;;40.22;31.14
16806;BME280;8520;50.102;20.010;2022-08-04T14:13:03;98388.38;;;40.24;31.15
16806;BME280;8520;50.102;20.010;2022-08-04T14:15:52;98389.50;;;39.87;31.44
16806;BME280;8520;50.102;20.010;2022-08-04T14:18:57;98388.13;;;39.90;31.69
16806;BME280;8520;50.102;20.010;2022-08-04T14:21:46;98377.72;;;40.31;31.93
16806;BME280;8520;50.102;20.010;2022-08-04T14:24:35;98383.91;;;39.45;32.03
16806;BME280;8520;50.102;20.010;2022-08-04T14:27:24;98373.28;;;39.76;32.05
16806;BME280;8520;50.102;20.010;2022-08-04T14:30:24;98382.84;;;39.57;32.53
16806;BME280;8520;50.102;20.010;2022-08-04T14:33:13;98377.41;;;39.21;32.40
16806;BME280;8520;50.102;20.010;2022-08-04T14:36:22;98369.69;;;39.28;32.52
16806;BME280;8520;50.102;20.010;2022-08-04T14:39:11;98369.50;;;39.00;32.76
16806;BME280;8520;50.102;20.010;2022-08-04T14:41:59;98367.47;;;39.50;32.59
16806;BME280;8520;50.102;20.010;2022-08-04T14:44:52;98369.81;;;39.56;32.94
16806;BME280;8520;50.102;20.010;2022-08-04T14:47:45;98359.63;;;39.29;32.48
16806;BME280;8520;50.102;20.010;2022-08-04T14:50:42;98358.09;;;39.73;31.87
16806;BME280;8520;50.102;20.010;2022-08-04T14:53:31;98364.97;;;38.71;33.46
16806;BME280;8520;50.102;20.010;2022-08-04T14:56:19;98369.53;;;38.78;32.82
16806;BME280;8520;50.102;20.010;2022-08-04T14:59:39;98362.66;;;39.11;33.00
16806;BME280;8520;50.102;20.010;2022-08-04T15:02:50;98362.88;;;39.17;32.78
16806;BME280;8520;50.102;20.010;2022-08-04T15:05:41;98366.44;;;38.93;32.63
16806;BME280;8520;50.102;20.010;2022-08-04T15:08:52;98360.56;;;39.35;32.46
16806;BME280;8520;50.102;20.010;2022-08-04T15:11:40;98357.31;;;39.71;31.78
16806;BME280;8520;50.102;20.010;2022-08-04T15:14:29;98364.81;;;39.10;32.40
16806;BME280;8520;50.102;20.010;2022-08-04T15:17:24;98363.38;;;39.33;32.13
16806;BME280;8520;50.102;20.010;2022-08-04T15:20:17;98358.66;;;39.68;32.44
16806;BME280;8520;50.102;20.010;2022-08-04T15:23:06;98356.75;;;39.52;32.62
16806;BME280;8520;50.102;20.010;2022-08-04T15:25:59;98354.84;;;38.91;32.44
16806;BME280;8520;50.102;20.010;2022-08-04T15:28:52;98352.44;;;39.06;32.45
16806;BME280;8520;50.102;20.010;2022-08-04T15:31:43;98348.59;;;39.69;31.81
16806;BME280;8520;50.102;20.010;2022-08-04T15:34:52;98350.44;;;39.34;31.79
16806;BME280;8520;50.102;20.010;2022-08-04T15:37:53;98352.66;;;39.36;32.18
16806;BME280;8520;50.102;20.010;2022-08-04T15:40:50;98351.41;;;39.43;31.53
16806;BME280;8520;50.102;20.010;2022-08-04T15:43:45;98352.19;;;38.76;32.65
16806;BME280;8520;50.102;20.010;2022-08-04T15:47:09;98353.91;;;38.85;32.26
16806;BME280;8520;50.102;20.010;2022-08-04T15:50:04;98353.28;;;39.10;32.09
16806;BME280;8520;50.102;20.010;2022-08-04T15:53:04;98345.09;;;39.24;32.39
16806;BME280;8520;50.102;20.010;2022-08-04T15:55:59;98343.06;;;39.05;32.94
16806;BME280;8520;50.102;20.010;2022-08-04T15:58:50;98344.94;;;38.96;33.04
16806;BME280;8520;50.102;20.010;2022-08-04T16:01:39;98347.09;;;38.96;32.64
16806;BME280;8520;50.102;20.010;2022-08-04T16:04:47;98347.19;;;38.56;32.98
16806;BME280;8520;50.102;20.010;2022-08-04T16:07:57;98342.81;;;38.75;32.61
16806;BME280;8520;50.102;20.010;2022-08-04T16:10:48;98346.72;;;38.64;33.24
16806;BME280;8520;50.102;20.010;2022-08-04T16:13:37;98342.34;;;38.83;32.61